Accueil
METAR-TAF:

METAR-TAF

Aéroports :

Aéroport de Lahr

Lahr, Allemagne

latitude: 48-22-09N, longitude: 007-49-40E, altitude: 156 m

Observation

Le bulletin a été fait il y a 10 heures et 55 minutes, à 18:50 UTC
Vent 3 kt de ouest
Température 3°C
Humidité 100%
Pression 1013 hPa
Visibilité: 2400 m
brume

METAR: EDTL 201850Z 27003KT 2400 BR VV004 03/03 Q1013

Heure: 06:45 (05:45 UTC)

Prévision

Le bulletin a été fait il y a 12 heures et 45 minutes, à 17:00 UTC
Prévision valable du 20 à 18 UTC au 20 à 24 UTC
Vent 3 kt de direction variable
Visibilité: 3000 m
Ciel couvert à une hauteur de 300 ft
brume
Evoluant progressivement
du 20 à 19 UTC au 20 à 21 UTC
Visibilité: 0700 m
à une hauteur de 100 ft
brouillard

TAF: EDTL 201700Z 2018/2024 VRB03KT 3000 BR OVC003 BECMG 2019/2021 0700 FG VV001

Observations et prévisions météorologiques de plus de 4000 aéroports (messages METAR et TAF).

Les stations disponibles sont représentées par des disques jaunes et rouges sur la carte.

Passer la souris dessus pour voir le nom de la station.

Cliquer dessus pour voir les observations et prévisions météorologiques.

Pour changer de carte: cliquez sur les boutons verts avec une croix noire pour zoomer, sur le bouton vert avec un tiret pour effectuer un zoom arrière, ou sur les flèches vertes pour les cartes adjacentes.


METAR-TAF: